sensor_id;sensor_type;location;lat;lon;timestamp;P1;durP1;ratioP1;P2;durP2;ratioP2
20236;SDS011;10277;54.386;18.596;2022-08-21T00:00:28;19.23;;;17.23;;
20236;SDS011;10277;54.386;18.596;2022-08-21T00:05:44;17.58;;;15.75;;
20236;SDS011;10277;54.386;18.596;2022-08-21T00:10:47;16.55;;;14.80;;
20236;SDS011;10277;54.386;18.596;2022-08-21T00:15:54;14.48;;;13.10;;
20236;SDS011;10277;54.386;18.596;2022-08-21T00:20:59;13.55;;;12.20;;
20236;SDS011;10277;54.386;18.596;2022-08-21T00:26:02;14.68;;;13.27;;
20236;SDS011;10277;54.386;18.596;2022-08-21T00:31:07;12.93;;;11.73;;
20236;SDS011;10277;54.386;18.596;2022-08-21T00:36:10;12.83;;;11.63;;
20236;SDS011;10277;54.386;18.596;2022-08-21T00:41:15;11.50;;;10.40;;
20236;SDS011;10277;54.386;18.596;2022-08-21T00:46:40;11.50;;;10.40;;
20236;SDS011;10277;54.386;18.596;2022-08-21T00:51:47;9.85;;;8.90;;
20236;SDS011;10277;54.386;18.596;2022-08-21T00:56:52;10.40;;;9.48;;
20236;SDS011;10277;54.386;18.596;2022-08-21T01:01:58;9.00;;;8.20;;
20236;SDS011;10277;54.386;18.596;2022-08-21T01:07:04;9.95;;;8.57;;
20236;SDS011;10277;54.386;18.596;2022-08-21T01:12:06;9.40;;;8.55;;
20236;SDS011;10277;54.386;18.596;2022-08-21T01:17:09;8.93;;;8.02;;
20236;SDS011;10277;54.386;18.596;2022-08-21T01:22:14;9.00;;;8.20;;
20236;SDS011;10277;54.386;18.596;2022-08-21T01:27:17;8.35;;;7.65;;
20236;SDS011;10277;54.386;18.596;2022-08-21T01:32:23;8.88;;;7.97;;
20236;SDS011;10277;54.386;18.596;2022-08-21T01:37:25;9.57;;;8.55;;
20236;SDS011;10277;54.386;18.596;2022-08-21T01:42:30;9.32;;;8.52;;
20236;SDS011;10277;54.386;18.596;2022-08-21T01:47:37;8.85;;;8.05;;
20236;SDS011;10277;54.386;18.596;2022-08-21T01:52:42;9.00;;;8.20;;
20236;SDS011;10277;54.386;18.596;2022-08-21T01:57:52;8.83;;;8.00;;
20236;SDS011;10277;54.386;18.596;2022-08-21T02:02:59;9.52;;;8.65;;
20236;SDS011;10277;54.386;18.596;2022-08-21T02:08:02;9.23;;;8.32;;
20236;SDS011;10277;54.386;18.596;2022-08-21T02:13:07;10.13;;;9.13;;
20236;SDS011;10277;54.386;18.596;2022-08-21T02:18:17;9.70;;;8.80;;
20236;SDS011;10277;54.386;18.596;2022-08-21T02:23:20;9.18;;;8.38;;
20236;SDS011;10277;54.386;18.596;2022-08-21T02:28:30;9.60;;;8.70;;
20236;SDS011;10277;54.386;18.596;2022-08-21T02:33:38;9.60;;;8.80;;
20236;SDS011;10277;54.386;18.596;2022-08-21T02:38:43;9.77;;;8.98;;
20236;SDS011;10277;54.386;18.596;2022-08-21T02:43:46;10.38;;;9.48;;
20236;SDS011;10277;54.386;18.596;2022-08-21T02:48:50;11.25;;;10.25;;
20236;SDS011;10277;54.386;18.596;2022-08-21T02:53:55;11.52;;;10.52;;
20236;SDS011;10277;54.386;18.596;2022-08-21T02:59:00;12.40;;;11.30;;
20236;SDS011;10277;54.386;18.596;2022-08-21T03:04:05;12.32;;;11.23;;
20236;SDS011;10277;54.386;18.596;2022-08-21T03:09:07;12.65;;;11.60;;
20236;SDS011;10277;54.386;18.596;2022-08-21T03:14:17;13.40;;;12.30;;
20236;SDS011;10277;54.386;18.596;2022-08-21T03:19:22;13.13;;;12.03;;
20236;SDS011;10277;54.386;18.596;2022-08-21T03:24:32;12.40;;;11.20;;
20236;SDS011;10277;54.386;18.596;2022-08-21T03:29:40;13.05;;;11.85;;
20236;SDS011;10277;54.386;18.596;2022-08-21T03:34:44;13.30;;;12.10;;
20236;SDS011;10277;54.386;18.596;2022-08-21T03:39:47;13.45;;;12.25;;
20236;SDS011;10277;54.386;18.596;2022-08-21T03:44:51;13.30;;;12.10;;
20236;SDS011;10277;54.386;18.596;2022-08-21T03:49:56;12.77;;;11.60;;
20236;SDS011;10277;54.386;18.596;2022-08-21T03:55:01;12.07;;;11.07;;
20236;SDS011;10277;54.386;18.596;2022-08-21T04:00:04;12.70;;;11.60;;
20236;SDS011;10277;54.386;18.596;2022-08-21T04:05:09;12.23;;;11.13;;
20236;SDS011;10277;54.386;18.596;2022-08-21T04:10:16;11.90;;;10.90;;
20236;SDS011;10277;54.386;18.596;2022-08-21T04:15:22;12.15;;;10.98;;
20236;SDS011;10277;54.386;18.596;2022-08-21T04:20:26;12.30;;;11.20;;
20236;SDS011;10277;54.386;18.596;2022-08-21T04:25:28;11.97;;;10.87;;
20236;SDS011;10277;54.386;18.596;2022-08-21T04:30:36;11.95;;;10.85;;
20236;SDS011;10277;54.386;18.596;2022-08-21T04:35:41;11.45;;;10.45;;
20236;SDS011;10277;54.386;18.596;2022-08-21T04:40:44;11.82;;;10.65;;
20236;SDS011;10277;54.386;18.596;2022-08-21T04:45:47;11.38;;;10.18;;
20236;SDS011;10277;54.386;18.596;2022-08-21T04:56:01;11.75;;;10.60;;
20236;SDS011;10277;54.386;18.596;2022-08-21T05:01:08;11.23;;;10.23;;
20236;SDS011;10277;54.386;18.596;2022-08-21T05:06:11;11.73;;;10.68;;
20236;SDS011;10277;54.386;18.596;2022-08-21T05:11:17;10.93;;;9.83;;
20236;SDS011;10277;54.386;18.596;2022-08-21T05:16:20;10.73;;;9.80;;
20236;SDS011;10277;54.386;18.596;2022-08-21T05:21:42;10.95;;;9.88;;
20236;SDS011;10277;54.386;18.596;2022-08-21T05:26:47;10.88;;;9.88;;
20236;SDS011;10277;54.386;18.596;2022-08-21T05:31:53;10.87;;;9.87;;
20236;SDS011;10277;54.386;18.596;2022-08-21T05:36:57;11.20;;;10.10;;
20236;SDS011;10277;54.386;18.596;2022-08-21T05:42:08;11.20;;;10.27;;
20236;SDS011;10277;54.386;18.596;2022-08-21T05:47:13;11.15;;;9.95;;
20236;SDS011;10277;54.386;18.596;2022-08-21T05:52:21;11.38;;;10.27;;
20236;SDS011;10277;54.386;18.596;2022-08-21T05:57:25;10.90;;;9.90;;
20236;SDS011;10277;54.386;18.596;2022-08-21T06:02:30;10.37;;;9.37;;
20236;SDS011;10277;54.386;18.596;2022-08-21T06:07:33;9.50;;;8.60;;
20236;SDS011;10277;54.386;18.596;2022-08-21T06:12:35;9.52;;;8.63;;
20236;SDS011;10277;54.386;18.596;2022-08-21T06:17:42;9.27;;;8.30;;
20236;SDS011;10277;54.386;18.596;2022-08-21T06:22:49;9.07;;;8.17;;
20236;SDS011;10277;54.386;18.596;2022-08-21T06:28:00;8.97;;;8.07;;
20236;SDS011;10277;54.386;18.596;2022-08-21T06:33:03;8.32;;;7.63;;
20236;SDS011;10277;54.386;18.596;2022-08-21T06:38:07;8.23;;;7.57;;
20236;SDS011;10277;54.386;18.596;2022-08-21T06:43:14;8.97;;;8.17;;
20236;SDS011;10277;54.386;18.596;2022-08-21T06:48:23;7.90;;;7.20;;
20236;SDS011;10277;54.386;18.596;2022-08-21T06:53:28;7.70;;;7.00;;
20236;SDS011;10277;54.386;18.596;2022-08-21T06:58:33;7.18;;;6.57;;
20236;SDS011;10277;54.386;18.596;2022-08-21T07:03:39;6.70;;;6.20;;
20236;SDS011;10277;54.386;18.596;2022-08-21T07:08:41;6.75;;;6.20;;
20236;SDS011;10277;54.386;18.596;2022-08-21T07:13:44;6.93;;;6.33;;
20236;SDS011;10277;54.386;18.596;2022-08-21T07:18:49;6.90;;;6.30;;
20236;SDS011;10277;54.386;18.596;2022-08-21T07:23:51;6.93;;;6.22;;
20236;SDS011;10277;54.386;18.596;2022-08-21T07:28:54;8.10;;;6.93;;
20236;SDS011;10277;54.386;18.596;2022-08-21T07:33:57;7.97;;;7.20;;
20236;SDS011;10277;54.386;18.596;2022-08-21T07:39:02;8.00;;;7.20;;
20236;SDS011;10277;54.386;18.596;2022-08-21T07:44:07;7.83;;;7.03;;
20236;SDS011;10277;54.386;18.596;2022-08-21T07:49:16;9.60;;;7.40;;
20236;SDS011;10277;54.386;18.596;2022-08-21T07:54:25;8.80;;;7.03;;
20236;SDS011;10277;54.386;18.596;2022-08-21T07:59:35;8.82;;;6.65;;
20236;SDS011;10277;54.386;18.596;2022-08-21T08:04:40;8.18;;;6.93;;
20236;SDS011;10277;54.386;18.596;2022-08-21T08:09:54;8.95;;;7.07;;
20236;SDS011;10277;54.386;18.596;2022-08-21T08:14:57;9.15;;;7.55;;
20236;SDS011;10277;54.386;18.596;2022-08-21T08:20:04;8.27;;;6.60;;
20236;SDS011;10277;54.386;18.596;2022-08-21T08:25:11;7.90;;;7.03;;
20236;SDS011;10277;54.386;18.596;2022-08-21T08:30:14;7.30;;;6.60;;
20236;SDS011;10277;54.386;18.596;2022-08-21T08:35:17;7.20;;;6.50;;
20236;SDS011;10277;54.386;18.596;2022-08-21T08:40:29;7.82;;;6.18;;
20236;SDS011;10277;54.386;18.596;2022-08-21T08:45:34;6.30;;;5.70;;
20236;SDS011;10277;54.386;18.596;2022-08-21T08:50:49;6.47;;;5.85;;
20236;SDS011;10277;54.386;18.596;2022-08-21T08:55:56;6.30;;;5.35;;
20236;SDS011;10277;54.386;18.596;2022-08-21T09:01:09;6.32;;;5.60;;
20236;SDS011;10277;54.386;18.596;2022-08-21T09:06:40;5.82;;;5.30;;
20236;SDS011;10277;54.386;18.596;2022-08-21T09:27:26;6.80;;;4.97;;
20236;SDS011;10277;54.386;18.596;2022-08-21T09:32:29;6.70;;;5.10;;
20236;SDS011;10277;54.386;18.596;2022-08-21T09:42:57;7.40;;;5.23;;
20236;SDS011;10277;54.386;18.596;2022-08-21T09:53:19;11.30;;;5.18;;
20236;SDS011;10277;54.386;18.596;2022-08-21T09:58:29;10.13;;;5.90;;
20236;SDS011;10277;54.386;18.596;2022-08-21T10:03:32;7.50;;;5.72;;
20236;SDS011;10277;54.386;18.596;2022-08-21T10:08:35;7.43;;;5.70;;
20236;SDS011;10277;54.386;18.596;2022-08-21T10:14:02;8.43;;;7.13;;
20236;SDS011;10277;54.386;18.596;2022-08-21T10:24:20;8.05;;;5.68;;
20236;SDS011;10277;54.386;18.596;2022-08-21T10:35:42;8.40;;;5.50;;
20236;SDS011;10277;54.386;18.596;2022-08-21T10:50:44;7.38;;;5.10;;
20236;SDS011;10277;54.386;18.596;2022-08-21T11:01:22;5.82;;;4.57;;
20236;SDS011;10277;54.386;18.596;2022-08-21T11:06:31;5.30;;;4.30;;
20236;SDS011;10277;54.386;18.596;2022-08-21T11:11:42;5.67;;;4.13;;
20236;SDS011;10277;54.386;18.596;2022-08-21T11:17:02;6.00;;;4.43;;
20236;SDS011;10277;54.386;18.596;2022-08-21T11:27:23;5.38;;;3.60;;
20236;SDS011;10277;54.386;18.596;2022-08-21T11:37:50;5.03;;;3.30;;
20236;SDS011;10277;54.386;18.596;2022-08-21T11:53:28;6.53;;;3.72;;
20236;SDS011;10277;54.386;18.596;2022-08-21T11:58:39;3.85;;;3.35;;
20236;SDS011;10277;54.386;18.596;2022-08-21T12:09:00;5.00;;;3.60;;
20236;SDS011;10277;54.386;18.596;2022-08-21T12:19:12;6.47;;;3.03;;
20236;SDS011;10277;54.386;18.596;2022-08-21T12:24:17;3.93;;;2.83;;
20236;SDS011;10277;54.386;18.596;2022-08-21T12:29:24;5.43;;;2.80;;
20236;SDS011;10277;54.386;18.596;2022-08-21T12:34:36;4.57;;;2.80;;
20236;SDS011;10277;54.386;18.596;2022-08-21T12:39:39;5.53;;;3.38;;
20236;SDS011;10277;54.386;18.596;2022-08-21T12:44:53;7.50;;;3.10;;
20236;SDS011;10277;54.386;18.596;2022-08-21T12:50:09;5.80;;;3.33;;
20236;SDS011;10277;54.386;18.596;2022-08-21T12:55:15;5.45;;;3.22;;
20236;SDS011;10277;54.386;18.596;2022-08-21T13:00:29;6.90;;;3.20;;
20236;SDS011;10277;54.386;18.596;2022-08-21T13:05:34;6.97;;;3.08;;
20236;SDS011;10277;54.386;18.596;2022-08-21T13:10:47;7.35;;;2.97;;
20236;SDS011;10277;54.386;18.596;2022-08-21T13:15:55;6.60;;;3.08;;
20236;SDS011;10277;54.386;18.596;2022-08-21T13:21:11;3.85;;;2.55;;
20236;SDS011;10277;54.386;18.596;2022-08-21T13:26:19;5.22;;;2.65;;
20236;SDS011;10277;54.386;18.596;2022-08-21T13:31:27;6.63;;;2.70;;
20236;SDS011;10277;54.386;18.596;2022-08-21T13:36:34;7.85;;;4.72;;
20236;SDS011;10277;54.386;18.596;2022-08-21T13:41:43;4.13;;;2.50;;
20236;SDS011;10277;54.386;18.596;2022-08-21T13:46:49;3.65;;;2.40;;
20236;SDS011;10277;54.386;18.596;2022-08-21T13:51:56;5.17;;;2.53;;
20236;SDS011;10277;54.386;18.596;2022-08-21T13:56:59;7.28;;;3.42;;
20236;SDS011;10277;54.386;18.596;2022-08-21T14:02:30;6.65;;;2.53;;
20236;SDS011;10277;54.386;18.596;2022-08-21T14:07:34;4.75;;;2.72;;
20236;SDS011;10277;54.386;18.596;2022-08-21T14:17:52;6.65;;;3.70;;
20236;SDS011;10277;54.386;18.596;2022-08-21T14:22:54;4.47;;;2.75;;
20236;SDS011;10277;54.386;18.596;2022-08-21T14:33:31;5.75;;;2.97;;
20236;SDS011;10277;54.386;18.596;2022-08-21T14:38:35;4.40;;;2.58;;
20236;SDS011;10277;54.386;18.596;2022-08-21T14:43:37;4.90;;;2.50;;
20236;SDS011;10277;54.386;18.596;2022-08-21T14:48:40;4.20;;;2.43;;
20236;SDS011;10277;54.386;18.596;2022-08-21T14:53:42;3.28;;;1.92;;
20236;SDS011;10277;54.386;18.596;2022-08-21T14:58:48;6.00;;;1.80;;
20236;SDS011;10277;54.386;18.596;2022-08-21T15:03:55;3.43;;;1.80;;
20236;SDS011;10277;54.386;18.596;2022-08-21T15:08:58;3.97;;;2.10;;
20236;SDS011;10277;54.386;18.596;2022-08-21T15:14:06;2.70;;;1.70;;
20236;SDS011;10277;54.386;18.596;2022-08-21T15:19:11;7.00;;;2.30;;
20236;SDS011;10277;54.386;18.596;2022-08-21T15:24:14;4.03;;;2.03;;
20236;SDS011;10277;54.386;18.596;2022-08-21T15:29:19;4.07;;;2.13;;
20236;SDS011;10277;54.386;18.596;2022-08-21T15:34:27;7.03;;;2.90;;
20236;SDS011;10277;54.386;18.596;2022-08-21T15:39:29;7.47;;;3.00;;
20236;SDS011;10277;54.386;18.596;2022-08-21T15:44:40;9.13;;;3.50;;
20236;SDS011;10277;54.386;18.596;2022-08-21T15:49:47;5.57;;;2.87;;
20236;SDS011;10277;54.386;18.596;2022-08-21T15:54:54;6.63;;;2.70;;
20236;SDS011;10277;54.386;18.596;2022-08-21T16:00:04;5.73;;;2.53;;
20236;SDS011;10277;54.386;18.596;2022-08-21T16:05:14;7.77;;;3.87;;
20236;SDS011;10277;54.386;18.596;2022-08-21T16:10:21;9.37;;;3.67;;
20236;SDS011;10277;54.386;18.596;2022-08-21T16:15:30;6.73;;;4.67;;
20236;SDS011;10277;54.386;18.596;2022-08-21T16:20:32;7.70;;;3.40;;
20236;SDS011;10277;54.386;18.596;2022-08-21T16:25:36;6.57;;;3.33;;
20236;SDS011;10277;54.386;18.596;2022-08-21T16:30:42;7.03;;;2.70;;
20236;SDS011;10277;54.386;18.596;2022-08-21T16:35:51;8.80;;;2.90;;
20236;SDS011;10277;54.386;18.596;2022-08-21T16:40:54;5.67;;;2.70;;
20236;SDS011;10277;54.386;18.596;2022-08-21T16:45:57;6.27;;;2.60;;
20236;SDS011;10277;54.386;18.596;2022-08-21T16:51:00;5.73;;;3.33;;
20236;SDS011;10277;54.386;18.596;2022-08-21T16:56:05;6.57;;;3.20;;
20236;SDS011;10277;54.386;18.596;2022-08-21T17:01:09;4.30;;;2.20;;
20236;SDS011;10277;54.386;18.596;2022-08-21T17:06:15;5.40;;;2.63;;
20236;SDS011;10277;54.386;18.596;2022-08-21T17:16:39;7.43;;;4.23;;
20236;SDS011;10277;54.386;18.596;2022-08-21T17:21:44;5.00;;;2.90;;
20236;SDS011;10277;54.386;18.596;2022-08-21T17:26:49;5.80;;;2.93;;
20236;SDS011;10277;54.386;18.596;2022-08-21T17:31:56;2.50;;;1.97;;
20236;SDS011;10277;54.386;18.596;2022-08-21T17:36:59;6.03;;;2.40;;
20236;SDS011;10277;54.386;18.596;2022-08-21T17:42:03;4.57;;;2.60;;
20236;SDS011;10277;54.386;18.596;2022-08-21T17:47:07;5.73;;;3.10;;
20236;SDS011;10277;54.386;18.596;2022-08-21T17:52:15;9.73;;;3.50;;
20236;SDS011;10277;54.386;18.596;2022-08-21T17:57:18;5.23;;;2.93;;
20236;SDS011;10277;54.386;18.596;2022-08-21T18:02:26;4.60;;;2.90;;
20236;SDS011;10277;54.386;18.596;2022-08-21T18:07:28;8.97;;;3.30;;
20236;SDS011;10277;54.386;18.596;2022-08-21T18:12:34;4.23;;;2.40;;
20236;SDS011;10277;54.386;18.596;2022-08-21T18:17:39;5.33;;;2.60;;
20236;SDS011;10277;54.386;18.596;2022-08-21T18:22:47;6.33;;;2.53;;
20236;SDS011;10277;54.386;18.596;2022-08-21T18:27:50;5.53;;;2.90;;
20236;SDS011;10277;54.386;18.596;2022-08-21T18:33:00;6.45;;;3.80;;
20236;SDS011;10277;54.386;18.596;2022-08-21T18:38:03;5.95;;;2.65;;
20236;SDS011;10277;54.386;18.596;2022-08-21T18:43:08;4.10;;;2.42;;
20236;SDS011;10277;54.386;18.596;2022-08-21T18:48:16;4.50;;;2.33;;
20236;SDS011;10277;54.386;18.596;2022-08-21T18:53:24;4.40;;;2.80;;
20236;SDS011;10277;54.386;18.596;2022-08-21T18:58:30;4.60;;;2.38;;
20236;SDS011;10277;54.386;18.596;2022-08-21T19:03:33;5.37;;;2.30;;
20236;SDS011;10277;54.386;18.596;2022-08-21T19:08:43;4.97;;;2.40;;
20236;SDS011;10277;54.386;18.596;2022-08-21T19:13:48;5.53;;;3.55;;
20236;SDS011;10277;54.386;18.596;2022-08-21T19:18:58;4.78;;;3.20;;
20236;SDS011;10277;54.386;18.596;2022-08-21T19:24:01;4.68;;;2.65;;
20236;SDS011;10277;54.386;18.596;2022-08-21T19:29:24;4.53;;;2.67;;
20236;SDS011;10277;54.386;18.596;2022-08-21T19:34:36;5.13;;;2.40;;
20236;SDS011;10277;54.386;18.596;2022-08-21T19:39:44;4.60;;;2.50;;
20236;SDS011;10277;54.386;18.596;2022-08-21T19:44:59;4.85;;;2.60;;
20236;SDS011;10277;54.386;18.596;2022-08-21T19:50:05;5.65;;;3.20;;
20236;SDS011;10277;54.386;18.596;2022-08-21T19:55:23;4.53;;;1.60;;
20236;SDS011;10277;54.386;18.596;2022-08-21T20:00:29;4.07;;;2.00;;
20236;SDS011;10277;54.386;18.596;2022-08-21T20:05:37;4.75;;;2.20;;
20236;SDS011;10277;54.386;18.596;2022-08-21T20:10:41;5.05;;;2.40;;
20236;SDS011;10277;54.386;18.596;2022-08-21T20:15:47;5.47;;;2.70;;
20236;SDS011;10277;54.386;18.596;2022-08-21T20:20:51;6.95;;;3.28;;
20236;SDS011;10277;54.386;18.596;2022-08-21T20:25:54;5.60;;;3.10;;
20236;SDS011;10277;54.386;18.596;2022-08-21T20:30:59;6.20;;;3.50;;
20236;SDS011;10277;54.386;18.596;2022-08-21T20:36:01;4.63;;;3.23;;
20236;SDS011;10277;54.386;18.596;2022-08-21T20:41:08;6.33;;;3.00;;
20236;SDS011;10277;54.386;18.596;2022-08-21T20:46:34;7.15;;;3.30;;
20236;SDS011;10277;54.386;18.596;2022-08-21T20:51:38;4.95;;;3.10;;
20236;SDS011;10277;54.386;18.596;2022-08-21T20:56:52;7.43;;;4.50;;
20236;SDS011;10277;54.386;18.596;2022-08-21T21:02:15;6.87;;;3.00;;
20236;SDS011;10277;54.386;18.596;2022-08-21T21:07:27;6.33;;;3.30;;
20236;SDS011;10277;54.386;18.596;2022-08-21T21:12:36;6.03;;;2.80;;
20236;SDS011;10277;54.386;18.596;2022-08-21T21:17:54;5.28;;;2.88;;
20236;SDS011;10277;54.386;18.596;2022-08-21T21:23:15;4.35;;;2.50;;
20236;SDS011;10277;54.386;18.596;2022-08-21T21:28:28;3.97;;;2.58;;
20236;SDS011;10277;54.386;18.596;2022-08-21T21:33:36;3.85;;;2.50;;
20236;SDS011;10277;54.386;18.596;2022-08-21T21:38:47;5.10;;;2.50;;
20236;SDS011;10277;54.386;18.596;2022-08-21T21:54:29;3.37;;;2.30;;
20236;SDS011;10277;54.386;18.596;2022-08-21T22:15:36;4.43;;;3.00;;
20236;SDS011;10277;54.386;18.596;2022-08-21T22:25:51;4.15;;;3.13;;
20236;SDS011;10277;54.386;18.596;2022-08-21T22:31:12;6.05;;;3.50;;
20236;SDS011;10277;54.386;18.596;2022-08-21T22:36:18;4.65;;;3.10;;
20236;SDS011;10277;54.386;18.596;2022-08-21T22:41:22;4.43;;;2.33;;
20236;SDS011;10277;54.386;18.596;2022-08-21T22:46:36;3.97;;;2.22;;
20236;SDS011;10277;54.386;18.596;2022-08-21T22:51:43;3.88;;;2.47;;
20236;SDS011;10277;54.386;18.596;2022-08-21T22:56:58;4.27;;;2.83;;
20236;SDS011;10277;54.386;18.596;2022-08-21T23:07:48;5.80;;;3.20;;
20236;SDS011;10277;54.386;18.596;2022-08-21T23:13:04;5.93;;;3.10;;
20236;SDS011;10277;54.386;18.596;2022-08-21T23:23:41;7.03;;;3.20;;
20236;SDS011;10277;54.386;18.596;2022-08-21T23:39:09;4.27;;;3.30;;
20236;SDS011;10277;54.386;18.596;2022-08-21T23:49:57;5.40;;;2.97;;
